FW7194 Weather Reports


Display with metric or nautical units.
time (UTC)temp
F
wind
direction
speed
MPH
gust
MPH
rain 1hr
in
rain 24hr
in
rain mn
in
humidity
%
barometer
mb
20200709235745 82 220 1.0 2.0 0.00 0.00 0.00 86 1010.9
20200709235240 83 226 0.0 3.0 0.00 0.00 0.00 87 1010.9
20200709234735 83 219 1.0 2.0 0.00 0.00 0.00 87 1011.2
20200709234233 83 215 2.0 2.0 0.00 0.00 0.00 86 1010.9
20200709233729 83 213 0.0 1.0 0.00 0.00 0.00 86 1010.9
20200709233221 83 213 1.0 3.0 0.00 0.00 0.00 85 1010.6
20200709232720 82 234 2.0 3.0 0.00 0.00 0.00 86 1010.6
20200709232219 83 219 1.0 2.0 0.00 0.00 0.00 87 1010.9
20200709231717 83 231 0.0 1.0 0.00 0.00 0.00 85 1010.9
20200709231216 83 232 3.0 5.0 0.00 0.00 0.00 85 1010.9
20200709230712 83 232 3.0 3.0 0.00 0.00 0.00 84 1010.6
20200709230213 83 249 2.0 3.0 0.00 0.00 0.00 84 1010.9
20200709225708 83 197 2.0 5.0 0.00 0.00 0.00 84 1010.9
20200709225207 84 227 3.0 5.0 0.00 0.00 0.00 83 1010.9
20200709224705 84 195 3.0 5.0 0.00 0.00 0.00 82 1010.9
20200709224201 84 210 3.0 5.0 0.00 0.00 0.00 81 1010.9
20200709223659 85 206 3.0 5.0 0.00 0.00 0.00 81 1010.6
20200709223158 86 220 1.0 3.0 0.00 0.00 0.00 80 1010.9
20200709222652 86 190 1.0 3.0 0.00 0.00 0.00 80 1010.6
20200709222150 85 229 3.0 6.0 0.00 0.00 0.00 80 1010.9
20200709221645 85 225 2.0 3.0 0.00 0.00 0.00 79 1010.9
20200709221144 86 231 3.0 3.0 0.00 0.00 0.00 78 1010.9
20200709220644 86 194 4.0 7.0 0.00 0.00 0.00 79 1010.9
20200709220140 86 175 3.0 8.0 0.00 0.00 0.00 80 1010.6
20200709215638 85 212 1.0 1.0 0.00 0.00 0.00 83 1010.6
20200709215134 85 213 1.0 2.0 0.00 0.00 0.00 80 1010.9
20200709214633 85 207 2.0 2.0 0.00 0.00 0.00 79 1010.6
20200709214128 85 190 3.0 5.0 0.00 0.00 0.00 80 1010.9
20200709213624 85 124 5.0 7.0 0.00 0.00 0.00 80 1011.2
20200709213123 86 209 1.0 1.0 0.00 0.00 0.00 80 1010.9
20200709212618 85 109 5.0 6.0 0.00 0.00 0.00 79 1010.9
20200709212115 86 166 4.0 7.0 0.00 0.00 0.00 78 1010.9
20200709211614 86 220 1.0 2.0 0.00 0.00 0.00 75 1010.9
20200709211113 87 240 2.0 5.0 0.00 0.00 0.00 72 1010.9
20200709210609 87 206 7.0 8.0 0.00 0.00 0.00 72 1010.9
20200709210106 87 205 5.0 8.0 0.00 0.00 0.00 72 1010.9
20200709205602 86 235 6.0 7.0 0.00 0.00 0.00 74 1010.9
20200709205057 87 151 2.0 6.0 0.00 0.00 0.00 76 1010.9
20200709204554 87 163 5.0 6.0 0.00 0.00 0.00 68 1010.9
20200709204049 87 355 1.0 5.0 0.00 0.00 0.00 66 1010.9
20200709203547 88 10 3.0 6.0 0.00 0.00 0.00 66 1011.2
20200709203045 88 171 2.0 6.0 0.00 0.00 0.00 67 1010.9
20200709202541 87 148 1.0 5.0 0.00 0.00 0.00 70 1010.9
20200709202038 86 50 3.0 5.0 0.00 0.00 0.00 74 1010.9
20200709201533 85 103 2.0 5.0 0.00 0.00 0.00 78 1011.2
20200709201028 86 103 2.0 5.0 0.00 0.00 0.00 79 1011.2
20200709200526 87 12 3.0 8.0 0.00 0.00 0.00 75 1011.2
20200709200024 87 23 1.0 5.0 0.00 0.00 0.00 75 1011.2
20200709195523 88 328 1.0 7.0 0.00 0.00 0.00 72 1010.9
20200709195021 91 83 2.0 6.0 0.00 0.00 0.00 64 1010.9
20200709194518 90 27 2.0 3.0 0.00 0.00 0.00 65 1011.2
20200709194012 89 36 0.0 3.0 0.00 0.00 0.00 65 1010.9
20200709193508 87 185 1.0 3.0 0.00 0.00 0.00 74 1010.9
20200709193008 88 71 1.0 3.0 0.00 0.00 0.00 71 1010.9
20200709192502 89 5 1.0 3.0 0.00 0.00 0.00 66 1010.9
20200709191958 90 307 2.0 3.0 0.00 0.00 0.00 63 1011.2
20200709191453 90 15 2.0 2.0 0.00 0.00 0.00 66 1011.2
20200709190952 91 117 1.0 2.0 0.00 0.00 0.00 69 1011.2
20200709190447 89 53 1.0 6.0 0.00 0.00 0.00 71 1011.2
20200709185946 86 10 1.0 3.0 0.00 0.00 0.00 77 1011.2
20200709185444 87 1 1.0 2.0 0.00 0.00 0.00 74 1011.2
20200709184943 87 107 1.0 2.0 0.00 0.00 0.00 74 1011.2
20200709184441 87 328 3.0 6.0 0.00 0.00 0.00 73 1011.2
20200709183937 87 211 1.0 2.0 0.00 0.00 0.00 76 1011.2
20200709183433 88 60 3.0 3.0 0.00 0.00 0.00 69 1011.2
20200709182932 89 54 2.0 2.0 0.00 0.00 0.00 71 1011.2
20200709182431 89 320 0.0 3.0 0.00 0.00 0.00 69 1011.2
20200709181929 88 108 0.0 2.0 0.00 0.00 0.00 70 1011.2
20200709181428 89 4 0.0 2.0 0.00 0.00 0.00 70 1011.2
20200709180925 89 118 1.0 2.0 0.00 0.00 0.00 70 1011.2
20200709180420 90 273 0.0 1.0 0.00 0.00 0.00 65 1011.2
20200709175916 90 278 1.0 2.0 0.00 0.00 0.00 68 1011.2
20200709175411 88 28 2.0 5.0 0.00 0.00 0.00 69 1011.2
20200709174910 89 28 2.0 2.0 0.00 0.00 0.00 68 1011.2
20200709174407 89 22 2.0 2.0 0.00 0.00 0.00 68 1011.2
20200709173905 89 41 1.0 2.0 0.00 0.00 0.00 68 1011.6
20200709173403 87 47 1.0 3.0 0.00 0.00 0.00 76 1011.6
20200709172901 87 94 1.0 2.0 0.00 0.00 0.00 74 1011.6
20200709172358 86 38 1.0 2.0 0.00 0.00 0.00 74 1011.6
20200709171855 89 302 2.0 3.0 0.00 0.00 0.00 74 1011.6
20200709171353 88 236 0.0 2.0 0.00 0.00 0.00 72 1011.9
20200709170853 87 62 0.0 2.0 0.00 0.00 0.00 73 1011.9
20200709170350 86 65 0.0 3.0 0.00 0.00 0.00 76 1011.9
20200709165847 86 332 1.0 2.0 0.00 0.00 0.00 76 1011.9
20200709165343 86 333 1.0 2.0 0.00 0.00 0.00 77 1012.3
20200709164842 85 45 2.0 2.0 0.00 0.00 0.00 76 1011.9
20200709164339 86 15 2.0 2.0 0.00 0.00 0.00 77 1011.9
20200709163834 86 80 0.0 1.0 0.00 0.00 0.00 76 1011.9
20200709163331 85 78 1.0 3.0 0.00 0.00 0.00 74 1011.9
20200709162827 86 84 2.0 2.0 0.00 0.00 0.00 77 1011.9
20200709162325 86 349 3.0 5.0 0.00 0.00 0.00 78 1011.9
20200709161822 86 67 0.0 3.0 0.00 0.00 0.00 77 1011.9
20200709161318 86 331 2.0 2.0 0.00 0.00 0.00 78 1011.9
20200709160818 84 316 0.0 2.0 0.00 0.00 0.00 77 1011.9
20200709160315 85 71 5.0 7.0 0.00 0.00 0.00 78 1011.9
20200709155813 84 87 1.0 6.0 0.00 0.00 0.00 81 1011.9
20200709155312 84 4 2.0 2.0 0.00 0.00 0.00 80 1011.9
20200709154807 85 86 1.0 3.0 0.00 0.00 0.00 79 1011.9
20200709154303 85 47 1.0 2.0 0.00 0.00 0.00 79 1012.3
20200709153757 83 350 1.0 2.0 0.00 0.00 0.00 81 1012.3
20200709153258 83 61 2.0 2.0 0.00 0.00 0.00 83 1012.3
20200709152749 83 310 2.0 3.0 0.00 0.00 0.00 83 1012.3
20200709152248 84 251 1.0 2.0 0.00 0.00 0.00 81 1012.3
20200709151742 84 78 1.0 1.0 0.00 0.00 0.00 81 1012.3
20200709151241 83 335 1.0 5.0 0.00 0.00 0.00 81 1012.3
20200709150735 82 33 2.0 2.0 0.00 0.00 0.00 84 1012.6
20200709150230 82 6 1.0 2.0 0.00 0.00 0.00 82 1012.3
20200709145726 84 246 2.0 2.0 0.00 0.00 0.00 83 1012.3
20200709145227 83 47 1.0 2.0 0.00 0.00 0.00 81 1012.3
20200709144723 82 324 1.0 8.0 0.00 0.00 0.00 84 1012.3
20200709144220 84 41 3.0 5.0 0.00 0.00 0.00 81 1012.3
20200709143717 82 344 1.0 3.0 0.00 0.00 0.00 83 1012.6
20200709143218 82 121 1.0 5.0 0.00 0.00 0.00 85 1012.3
20200709142712 83 76 1.0 5.0 0.00 0.00 0.00 85 1012.6
20200709142208 83 187 1.0 1.0 0.00 0.00 0.00 84 1012.6
20200709141703 81 39 0.0 5.0 0.00 0.00 0.00 88 1012.3
20200709141203 81 313 3.0 5.0 0.00 0.00 0.00 87 1012.3
20200709140701 81 353 1.0 2.0 0.00 0.00 0.00 88 1012.3
20200709140158 82 57 1.0 5.0 0.00 0.00 0.00 88 1012.6
20200709135656 80 335 0.0 5.0 0.00 0.00 0.00 91 1012.3
20200709135152 79 88 1.0 1.0 0.00 0.00 0.00 93 1012.6
20200709134648 78 59 2.0 3.0 0.00 0.00 0.00 95 1012.3
20200709134145 77 344 2.0 3.0 0.00 0.00 0.00 97 1012.3
20200709133643 77 340 0.0 2.0 0.00 0.00 0.00 97 1012.3
20200709133142 77 22 2.0 3.0 0.00 0.00 0.00 98 1012.3
20200709132638 77 115 1.0 1.0 0.00 0.00 0.00 99 1012.3
20200709132135 77 359 3.0 5.0 0.00 0.00 0.00 99 1012.3
20200709131633 76 38 1.0 2.0 0.00 0.00 0.00 99 1012.3
20200709131128 76 354 0.0 3.0 0.00 0.00 0.00 99 1012.6
20200709130627 76 351 0.0 3.0 0.00 0.00 0.00 99 1012.3
20200709130124 76 339 0.0 2.0 0.00 0.00 0.00 99 1012.6
20200709125617 76 76 1.0 2.0 0.00 0.00 0.00 99 1012.6
20200709125114 76 353 0.0 1.0 0.00 0.00 0.00 99 1012.6
20200709124612 76 45 1.0 1.0 0.00 0.00 0.00 99 1012.6
20200709124109 76 192 0.0 2.0 0.00 0.00 0.00 99 1012.3
20200709123605 76 69 1.0 2.0 0.00 0.00 0.00 99 1012.3
20200709123101 76 135 1.0 1.0 0.00 0.00 0.00 99 1012.6
20200709122558 75 68 0.0 1.0 0.00 0.00 0.00 99 1012.3
20200709122053 75 52 0.0 2.0 0.00 0.00 0.00 99 1011.9
20200709121552 75 330 0.0 0.0 0.00 0.00 0.00 99 1011.9
20200709121052 75 330 1.0 1.0 0.00 0.00 0.00 99 1011.9
20200709120548 75 201 0.0 0.0 0.00 0.00 0.00 99 1012.3
20200709120044 75 173 0.0 1.0 0.00 0.00 0.00 99 1011.9
20200709115539 75 242 0.0 1.0 0.00 0.00 0.00 99 1011.6
20200709115036 75 174 0.0 1.0 0.00 0.00 0.00 99 1011.9
20200709114533 75 338 0.0 0.0 0.00 0.00 0.00 99 1011.6
20200709114030 75 238 0.0 0.0 0.00 0.00 0.00 99 1011.9
20200709113528 74 220 0.0 0.0 0.00 0.00 0.00 99 1011.9
20200709113026 74 207 0.0 0.0 0.00 0.00 0.00 99 1011.6
20200709112521 74 250 0.0 1.0 0.00 0.00 0.00 99 1011.6
20200709112018 74 239 0.0 1.0 0.00 0.00 0.00 99 1011.6
20200709111516 74 287 0.0 1.0 0.00 0.00 0.00 99 1011.6
20200709111015 74 285 0.0 1.0 0.00 0.00 0.00 99 1011.6
20200709110514 74 284 0.0 0.0 0.00 0.00 0.00 99 1011.2
20200709110012 74 97 2.0 3.0 0.00 0.00 0.00 99 1011.2
20200709105507 74 329 1.0 3.0 0.00 0.00 0.00 99 1011.2
20200709105002 74 322 0.0 1.0 0.00 0.00 0.00 99 1011.2
20200709104453 74 321 0.0 0.0 0.00 0.00 0.00 99 1010.9
20200709103953 74 321 0.0 0.0 0.00 0.00 0.00 99 1010.9
20200709103449 74 321 0.0 0.0 0.00 0.00 0.00 99 1010.9
20200709102948 74 321 0.0 0.0 0.00 0.00 0.00 99 1010.9
20200709102443 74 321 0.0 0.0 0.00 0.00 0.00 99 1010.9
20200709101938 74 316 0.0 0.0 0.00 0.00 0.00 99 1010.9
20200709101437 74 316 0.0 1.0 0.00 0.00 0.00 99 1010.9
20200709100932 74 277 0.0 0.0 0.00 0.00 0.00 99 1010.6
20200709100430 74 277 0.0 0.0 0.00 0.00 0.00 99 1010.6
20200709095927 74 277 0.0 0.0 0.00 0.00 0.00 99 1010.9
20200709095423 74 277 0.0 0.0 0.00 0.00 0.00 99 1010.6
20200709094919 74 277 0.0 0.0 0.00 0.00 0.00 99 1010.6
20200709094416 74 277 0.0 0.0 0.00 0.00 0.00 99 1010.6
20200709093912 74 277 0.0 0.0 0.00 0.00 0.00 99 1010.6
20200709093412 74 277 0.0 0.0 0.00 0.00 0.00 99 1010.6
20200709092907 74 278 0.0 0.0 0.00 0.00 0.00 99 1010.2
20200709092405 74 278 0.0 0.0 0.00 0.00 0.00 99 1010.6
20200709091903 74 278 0.0 0.0 0.00 0.00 0.00 99 1010.2
20200709091401 74 278 0.0 0.0 0.00 0.00 0.00 99 1010.2
20200709090900 74 278 0.0 0.0 0.00 0.00 0.00 99 1010.2
20200709090357 74 278 0.0 0.0 0.00 0.00 0.00 99 1010.2
20200709085854 74 278 0.0 0.0 0.00 0.00 0.00 99 1010.2
20200709085350 74 278 0.0 0.0 0.00 0.00 0.00 99 1010.2
20200709084848 74 278 0.0 0.0 0.00 0.00 0.00 99 1009.9
20200709084348 74 278 0.0 0.0 0.00 0.00 0.00 99 1009.9
20200709083844 74 278 0.0 0.0 0.00 0.00 0.00 99 1009.9
20200709083338 74 278 0.0 0.0 0.00 0.00 0.00 99 1009.9
20200709082832 74 278 0.0 1.0 0.00 0.00 0.00 99 1009.9
20200709082329 74 278 0.0 0.0 0.00 0.00 0.00 99 1009.9
20200709081827 74 278 0.0 0.0 0.00 0.00 0.00 99 1009.9
20200709081321 74 278 0.0 1.0 0.00 0.00 0.00 99 1009.9
20200709080820 74 268 0.0 0.0 0.00 0.00 0.00 99 1009.9
20200709080319 75 207 0.0 0.0 0.00 0.00 0.00 99 1009.9
20200709075817 75 196 0.0 0.0 0.00 0.00 0.00 99 1009.9
20200709075315 75 293 0.0 1.0 0.00 0.00 0.00 99 1009.9
20200709074814 75 271 0.0 0.0 0.00 0.00 0.00 99 1009.9
20200709074311 75 262 0.0 0.0 0.00 0.00 0.00 99 1009.9
20200709073806 75 263 0.0 0.0 0.00 0.00 0.00 99 1009.9
20200709073306 75 228 0.0 1.0 0.00 0.00 0.00 99 1009.9
20200709072804 75 215 0.0 0.0 0.00 0.00 0.00 99 1009.9
20200709072301 75 215 0.0 0.0 0.00 0.00 0.00 99 1009.9
20200709071756 75 214 0.0 0.0 0.00 0.00 0.00 99 1009.9
20200709071255 75 214 0.0 0.0 0.00 0.00 0.00 99 1009.9
20200709070752 75 214 0.0 0.0 0.00 0.00 0.00 99 1010.2
20200709070251 75 214 0.0 0.0 0.00 0.00 0.00 99 1009.9
20200709065749 75 214 0.0 0.0 0.00 0.00 0.00 99 1010.2
20200709065244 75 195 0.0 0.0 0.00 0.00 0.00 99 1010.2
20200709064742 75 194 0.0 0.0 0.00 0.00 0.00 99 1010.2
20200709064244 75 194 0.0 0.0 0.00 0.00 0.00 99 1010.2
20200709063738 75 194 0.0 0.0 0.00 0.00 0.00 99 1010.2
20200709063232 76 193 0.0 0.0 0.00 0.00 0.00 99 1010.2
20200709062731 76 191 0.0 0.0 0.00 0.00 0.00 99 1010.2
20200709062227 76 190 0.0 0.0 0.00 0.00 0.00 99 1010.2
20200709061724 76 190 0.0 0.0 0.00 0.00 0.00 99 1010.6
20200709061220 76 176 0.0 0.0 0.00 0.00 0.00 99 1010.2
20200709060719 75 215 0.0 0.0 0.00 0.00 0.00 99 1010.9
20200709060215 76 215 0.0 0.0 0.00 0.00 0.00 99 1010.6
20200709055714 76 215 0.0 0.0 0.00 0.00 0.00 99 1010.6
20200709055212 76 215 0.0 0.0 0.00 0.00 0.00 99 1010.6
20200709054711 76 215 0.0 0.0 0.00 0.00 0.00 99 1010.6
20200709054207 76 215 0.0 0.0 0.00 0.00 0.00 99 1010.6
20200709053703 76 215 0.0 0.0 0.00 0.00 0.00 99 1010.6
20200709053201 76 215 0.0 0.0 0.00 0.00 0.00 99 1010.6
20200709052656 76 215 0.0 0.0 0.00 0.00 0.00 99 1010.9
20200709052153 76 215 0.0 0.0 0.00 0.00 0.00 99 1010.6
20200709051653 76 215 0.0 0.0 0.00 0.00 0.00 99 1010.9
20200709051148 76 215 0.0 0.0 0.00 0.00 0.00 99 1010.6
20200709050647 76 215 0.0 0.0 0.00 0.00 0.00 99 1010.6
20200709050147 77 215 0.0 0.0 0.00 0.00 0.00 99 1010.9
20200709045644 77 215 0.0 0.0 0.00 0.00 0.00 99 1010.9
20200709045137 77 215 0.0 0.0 0.00 0.00 0.00 99 1010.6
20200709044631 77 215 0.0 0.0 0.00 0.00 0.00 99 1010.9
20200709044128 77 215 0.0 0.0 0.00 0.00 0.00 99 1011.2
20200709043625 77 215 0.0 0.0 0.00 0.00 0.00 99 1010.9
20200709043124 77 216 0.0 0.0 0.00 0.00 0.00 99 1010.9
20200709042620 77 270 0.0 0.0 0.00 0.00 0.00 99 1011.2
20200709042118 77 270 0.0 0.0 0.00 0.00 0.00 99 1010.9
20200709041616 77 270 0.0 0.0 0.00 0.00 0.00 99 1011.2
20200709041115 77 270 0.0 0.0 0.00 0.00 0.00 99 1011.2
20200709040613 77 270 0.0 0.0 0.00 0.00 0.00 99 1011.2
20200709040111 77 270 0.0 0.0 0.00 0.00 0.00 99 1010.9
20200709035608 77 271 0.0 0.0 0.00 0.16 0.16 99 1010.9
20200709035104 77 272 0.0 0.0 0.00 0.16 0.16 99 1010.9
20200709034601 77 242 0.0 0.0 0.07 0.16 0.16 99 1010.9
20200709034059 77 242 0.0 0.0 0.05 0.15 0.15 99 1010.9
20200709033557 77 241 0.0 0.0 0.05 0.15 0.15 99 1011.2
20200709033052 77 212 0.0 0.0 0.00 0.14 0.14 99 1011.2
20200709032549 77 212 0.0 0.0 0.00 0.14 0.14 99 1011.2
20200709032046 77 212 0.0 0.0 0.07 0.14 0.14 99 1011.2
20200709031543 77 212 0.0 0.0 0.00 0.13 0.13 99 1011.2
20200709031036 77 212 0.0 0.0 0.00 0.13 0.13 99 1011.2
20200709030536 77 212 0.0 0.0 0.00 0.13 0.13 99 1011.2
20200709030036 77 212 0.0 0.0 0.00 0.13 0.13 99 1011.6
20200709025524 77 211 0.0 0.0 0.00 0.13 0.13 99 1011.6
20200709025021 77 211 1.0 1.0 0.00 0.13 0.13 99 1011.6
20200709024520 77 234 1.0 1.0 0.00 0.13 0.13 99 1011.2
20200709024018 77 293 0.0 0.0 0.00 0.13 0.13 99 1011.2
20200709023514 77 293 0.0 0.0 0.00 0.13 0.13 99 1011.2
20200709023008 77 272 1.0 2.0 0.00 0.13 0.13 99 1011.2
20200709022506 77 244 0.0 0.0 0.00 0.13 0.13 98 1011.2
20200709022004 77 244 0.0 0.0 0.00 0.13 0.13 98 1010.9
20200709021504 77 201 0.0 1.0 0.00 0.13 0.13 98 1011.2
20200709021004 77 203 1.0 1.0 0.00 0.13 0.13 98 1010.9
20200709020503 77 204 0.0 1.0 0.00 0.13 0.13 98 1010.9
20200709020003 77 205 1.0 2.0 0.00 0.13 0.13 98 1010.9
20200709015457 77 241 0.0 0.0 0.00 0.13 0.13 99 1011.2
20200709014955 77 241 0.0 0.0 0.00 0.13 0.13 98 1010.9
20200709014454 77 239 1.0 1.0 0.00 0.13 0.13 98 1010.6
20200709013951 78 219 1.0 2.0 0.00 0.13 0.13 98 1010.6
20200709013451 78 259 0.0 1.0 0.00 0.13 0.13 98 1010.6
20200709012946 78 205 0.0 1.0 0.00 0.13 0.13 98 1010.6
20200709012441 78 205 1.0 2.0 0.00 0.13 0.13 98 1010.6
20200709011937 78 233 0.0 0.0 0.00 0.13 0.13 98 1010.6
20200709011433 78 233 0.0 0.0 0.00 0.13 0.13 98 1010.6
20200709010928 79 234 0.0 0.0 0.00 0.13 0.13 97 1010.6
20200709010427 79 196 0.0 0.0 0.00 0.13 0.13 97 1010.2
20200709005924 79 196 2.0 2.0 0.00 0.13 0.13 96 1010.6
20200709005423 79 210 0.0 2.0 0.00 0.13 0.13 96 1010.6
20200709004919 79 225 0.0 1.0 0.00 0.13 0.13 96 1010.2
20200709004419 79 215 0.0 2.0 0.00 0.13 0.13 96 1010.6
20200709003916 79 251 1.0 3.0 0.00 0.13 0.13 96 1010.6
20200709003411 80 215 0.0 1.0 0.00 0.13 0.13 96 1010.6
20200709002910 80 197 1.0 2.0 0.00 0.13 0.13 95 1010.6
20200709002406 80 169 0.0 2.0 0.00 0.13 0.13 95 1010.6
20200709001902 80 186 3.0 5.0 0.00 0.13 0.13 95 1010.6
20200709001401 80 191 4.0 6.0 0.00 0.13 0.13 95 1010.2
20200709000858 80 197 4.0 5.0 0.00 0.13 0.13 95 1010.6
20200709000353 81 218 1.0 2.0 0.00 0.13 0.13 95 1010.2
20200708235852 81 193 1.0 2.0 0.05 0.13 0.13 94 1010.2